Latest Coastal Weather Observations for Laverton

IDV60701

Issued at 7:52 pm EST Monday 4 May 2026 (issued every 10 minutes, with the page automatically refreshed every 10 minutes)

About coastal observations | Map of coastal stations | Coastal observations for VIC | Marine services | Other Formats
Station Details ID: 087031 Name: LAVERTON RAAF Lat: -37.86 Lon: 144.76 Height: 20.1 m
Data from the previous 72 hours. | See also: Recent months at Laverton
Date/Time
EST
Wind Sea
Height
m
Swell Vis
km
Cloud Weather Temp
°C
Press
MSL
hPa
Rain since
9am
mm
Dir  Spd
kts
Gust
kts
Height
m
Period
s
Dir
04/07:30pm NNW 10 13 - - - - 10 Partly cloudy - 15.0 1011.2 0.2
04/07:00pm NNW 12 18 - - - - 10 Mostly clear - 15.3 1010.9 0.2
04/06:30pm N 11 17 - - - - 10 Mostly clear - 15.3 1010.5 0.2
04/06:00pm N 7 13 - - - - 10 Partly cloudy - 15.0 1010.0 0.2
04/05:30pm N 13 21 - - - - 10 Mostly clear - 15.7 1009.6 0.2
04/05:00pm N 12 18 - - - - 10 Mostly clear - 15.4 1009.4 0.2
04/04:30pm N 13 20 - - - - 10 Partly cloudy - 16.4 1009.2 0.0
04/04:00pm N 12 20 - - - - 10 Partly cloudy - 17.7 1009.0 0.0
04/03:41pm N 15 26 - - - - 10 Partly cloudy - 18.1 1008.9 0.0
04/03:30pm N 15 23 - - - - 10 Partly cloudy - 18.0 1009.1 0.0
04/03:00pm N 13 23 - - - - 10 Cloudy - 17.9 1009.0 0.0
04/02:30pm N 15 24 - - - - 10 Partly cloudy - 17.9 1008.8 0.0
04/02:06pm N 17 27 - - - - 10 Partly cloudy - 17.9 1008.8 0.0
04/02:00pm N 19 26 - - - - 10 Partly cloudy - 17.7 1008.9 0.0
04/01:30pm NNW 18 28 - - - - 10 Mostly clear - 19.2 1008.9 0.0
04/01:00pm NNW 18 28 - - - - 10 Cloudy - 18.5 1009.1 0.0
04/12:39pm N 15 25 - - - - 10 Partly cloudy - 18.1 1009.4 0.0
04/12:30pm N 19 27 - - - - 10 Partly cloudy - 18.1 1009.5 0.0
04/12:02pm N 16 26 - - - - 10 Mostly clear - 18.1 1010.0 0.0
04/12:00pm N 17 26 - - - - 10 Partly cloudy - 17.7 1010.0 0.0
04/11:30am NNW 17 28 - - - - 10 Mostly clear - 18.0 1010.6 0.0
04/11:16am NNW 17 30 - - - - 10 Partly cloudy - 17.5 1010.5 0.0
04/11:00am NNW 14 24 - - - - 10 Mostly clear - 17.7 1010.7 0.0
04/10:43am NNW 15 25 - - - - 10 Partly cloudy - 17.7 1010.7 0.0
04/10:30am N 12 17 - - - - 10 Partly cloudy - 17.5 1010.7 0.0
04/10:00am N 12 19 - - - - 10 - - 16.7 1010.8 0.0
04/09:30am N 12 20 - - - - 10 - - 15.8 1011.0 0.0
04/09:00am N 14 23 - - - - 10 Mostly clear - 14.8 1011.0 3.8
04/08:30am N 12 18 - - - - 10 Partly cloudy - 14.5 1011.1 3.8
04/08:00am N 12 19 - - - - 10 - - 13.8 1011.0 3.8
04/07:30am N 10 14 - - - - 10 - - 13.1 1011.1 3.8
04/07:00am N 10 13 - - - - 10 - - 12.9 1010.9 3.8
04/06:30am N 11 14 - - - - 10 - - 13.0 1010.7 3.8
04/06:00am N 11 16 - - - - 10 Mostly clear - 12.9 1010.7 3.8
04/05:30am N 11 18 - - - - 10 - - 12.9 1010.8 3.8
04/05:00am N 9 13 - - - - 10 - - 12.7 1010.9 3.8
04/04:30am NNE 10 15 - - - - 10 - - 12.8 1011.1 3.8
04/04:00am NNE 10 15 - - - - 10 - - 12.8 1011.3 3.8
04/03:30am NNE 10 14 - - - - 10 Mostly clear - 12.9 1011.5 3.8
04/03:00am NNE 11 15 - - - - 10 - - 12.9 1011.7 3.8
04/02:30am NNE 10 14 - - - - 10 - - 13.1 1011.9 3.8
04/02:00am NNE 7 9 - - - - 10 - - 13.1 1012.0 3.8
04/01:30am N 9 13 - - - - 10 - - 13.4 1011.9 3.8
04/01:00am NNE 9 12 - - - - 10 - - 13.3 1012.1 3.8
04/12:30am N 9 13 - - - - 10 - - 13.8 1012.0 3.8
04/12:00am N 9 12 - - - - 10 - - 13.9 1012.1 3.8
 
Date/Time
EST
Wind Sea
Height
m
Swell Vis
km
Cloud Weather Temp
°C
Press
MSL
hPa
Rain since
9am
mm
Dir  Spd
kts
Gust
kts
Height
m
Period
s
Dir
03/11:30pm NNE 9 16 - - - - 10 - - 14.2 1012.4 3.8
03/11:00pm NNE 7 9 - - - - 10 - - 14.2 1012.6 3.8
03/10:30pm N 8 13 - - - - 10 - - 14.5 1012.6 3.8
03/10:00pm NNE 8 11 - - - - 10 - - 14.9 1013.1 3.8
03/09:30pm NNE 7 9 - - - - 10 - - 14.8 1013.3 3.8
03/09:00pm NNE 7 9 - - - - 10 Cloudy - 15.0 1012.7 3.8
03/08:30pm NNE 7 9 - - - - 10 - - 15.1 1012.9 3.8
03/08:00pm NNE 7 9 - - - - 10 - - 15.3 1012.6 3.8
03/07:30pm N 7 10 - - - - 10 - - 15.6 1012.4 3.8
03/07:00pm NNE 6 7 - - - - 10 - - 15.2 1011.9 3.8
03/06:30pm N 6 7 - - - - 10 - - 15.8 1011.4 3.8
03/06:00pm N 6 9 - - - - 10 - - 16.4 1011.2 3.8
03/05:30pm NNW 6 9 - - - - 10 - - 17.1 1011.1 3.8
03/05:00pm NW 10 14 - - - - 10 - - 18.0 1010.7 3.8
03/04:30pm WNW 14 19 - - - - 10 Partly cloudy - 18.6 1010.6 3.8
03/04:00pm WNW 13 19 - - - - 10 Partly cloudy - 19.8 1010.5 3.8
03/03:30pm NW 11 16 - - - - 10 Cloudy - 20.4 1010.4 3.8
03/03:00pm NNW 7 11 - - - - 10 Mostly cloudy - 19.3 1010.3 3.8
03/02:30pm NNW 9 14 - - - - 10 Mostly clear - 19.2 1010.0 3.8
03/02:00pm NW 8 13 - - - - 10 Partly cloudy - 18.6 1010.3 3.8
03/01:30pm NW 9 13 - - - - 10 Partly cloudy - 18.4 1010.3 3.8
03/01:00pm NW 10 16 - - - - 10 Partly cloudy - 18.5 1010.4 3.8
03/12:30pm N 13 20 - - - - 10 Partly cloudy - 19.4 1010.3 3.8
03/12:04pm N 15 28 - - - - 10 Mostly clear - 19.8 1010.0 3.8
03/12:00pm N 14 23 - - - - 10 Cloudy - 20.0 1010.0 3.8
03/11:30am N 12 21 - - - - 10 Mostly clear - 18.5 1009.9 3.8
03/11:00am N 15 25 - - - - 10 Partly cloudy - 18.2 1010.6 3.8
03/10:30am NNE 16 27 - - - - 10 Mostly clear - 17.8 1009.8 3.8
03/10:00am NNE 19 31 - - - - 8 Partly cloudy - 17.7 1009.9 3.0
03/09:52am NNE 17 31 - - - - 8 Mostly clear - 17.9 1010.3 2.0
03/09:30am N 13 20 - - - - 10 Partly cloudy - 18.6 1011.5 0.2
03/09:00am NNE 18 30 - - - - 10 Cloudy - 20.0 1011.0 0.0
03/08:53am NNE 17 27 - - - - 10 - - 20.1 1011.5 0.0
03/08:30am NNE 16 24 - - - - 10 - - 19.9 1010.4 0.0
03/08:16am NNE 15 26 - - - - 10 - - 19.2 1010.0 0.0
03/08:00am NNE 14 21 - - - - 10 - - 18.6 1010.7 0.0
03/07:30am NNE 15 22 - - - - 10 - - 18.4 1011.4 0.0
03/07:06am NNE 15 25 - - - - 10 Mostly clear - 18.4 1011.1 0.0
03/07:00am N 17 25 - - - - 10 Mostly clear - 18.5 1011.2 0.0
03/06:39am NNE 17 29 - - - - 10 Mostly clear - 18.6 1010.8 0.0
03/06:30am NNE 17 26 - - - - 10 Cloudy - 18.6 1011.2 0.0
03/06:13am N 16 26 - - - - 10 Cloudy - 18.6 1011.7 0.0
03/06:00am N 16 25 - - - - 10 Cloudy - 18.9 1012.1 0.0
03/05:30am N 13 24 - - - - 10 Cloudy - 18.8 1011.6 0.0
03/05:00am NNE 12 17 - - - - 10 Cloudy - 18.6 1011.3 0.0
03/04:30am NNE 15 26 - - - - 10 Cloudy - 19.3 1010.8 0.0
03/04:00am N 16 25 - - - - 10 Cloudy - 20.1 1011.4 0.0
03/03:56am N 15 25 - - - - 10 Cloudy - 20.2 1011.4 0.0
03/03:30am N 12 19 - - - - 10 Mostly clear - 20.0 1012.0 0.0
03/03:00am N 11 17 - - - - 10 Cloudy - 20.0 1012.7 0.0
03/02:30am N 10 16 - - - - 10 Mostly clear - 20.3 1012.4 0.0
03/02:00am N 7 12 - - - - 10 Cloudy - 20.1 1012.7 0.0
03/01:30am N 8 11 - - - - 10 Cloudy - 20.1 1013.0 0.0
03/01:00am N 7 13 - - - - 10 - - 20.1 1013.2 0.0
03/12:30am N 8 11 - - - - 10 - - 20.0 1013.4 0.0
03/12:00am N 10 15 - - - - 10 Cloudy - 20.2 1013.5 0.0
 
Date/Time
EST
Wind Sea
Height
m
Swell Vis
km
Cloud Weather Temp
°C
Press
MSL
hPa
Rain since
9am
mm
Dir  Spd
kts
Gust
kts
Height
m
Period
s
Dir
02/11:30pm NNW 6 9 - - - - 10 Cloudy - 20.9 1013.9 0.0
02/11:00pm N 6 10 - - - - 10 Partly cloudy - 21.4 1014.1 0.0
02/10:30pm N 8 12 - - - - 10 Mostly clear - 21.3 1014.3 0.0
02/10:00pm N 7 11 - - - - 10 - - 22.0 1014.5 0.0
02/09:30pm N 7 13 - - - - 10 - - 22.1 1014.5 0.0
02/09:00pm N 6 9 - - - - 10 Cloudy - 21.4 1014.6 0.0
02/08:30pm N 6 8 - - - - 10 - - 22.0 1014.4 0.0
02/08:00pm N 6 9 - - - - 10 - - 22.2 1014.4 0.0
02/07:30pm N 5 7 - - - - 10 - - 22.1 1014.7 0.0
02/07:00pm N 6 10 - - - - 10 Cloudy - 22.9 1014.7 0.0
02/06:30pm N 9 14 - - - - 10 Cloudy - 23.5 1014.5 0.0
02/06:00pm N 9 14 - - - - 10 Mostly cloudy - 23.7 1014.4 0.0
02/05:30pm N 12 19 - - - - 10 Cloudy - 24.0 1014.3 0.0
02/05:00pm N 13 20 - - - - 10 - - 24.3 1014.0 0.0
02/04:30pm N 13 25 - - - - 10 - - 24.5 1013.9 0.0
02/04:21pm N 15 25 - - - - 10 - - 24.5 1013.8 0.0
02/04:00pm NNE 14 21 - - - - 10 - - 25.0 1013.9 0.0
02/03:30pm NNE 14 22 - - - - 10 - - 24.2 1014.2 0.0
02/03:00pm NNE 14 21 - - - - 10 Mostly cloudy - 24.5 1014.4 0.0
02/02:30pm NNE 14 20 - - - - 10 - - 24.2 1014.6 0.0
02/02:00pm N 13 20 - - - - 10 - - 23.6 1015.0 0.0
02/01:30pm NNE 13 19 - - - - 10 - - 22.9 1015.6 0.0
02/01:00pm NNE 14 21 - - - - 10 - - 23.1 1016.1 0.0
02/12:30pm NNE 12 20 - - - - 10 Mostly clear - 22.3 1016.9 0.0
02/12:00pm NNE 14 21 - - - - 10 Cloudy - 21.4 1017.5 0.0
02/11:30am NNE 12 18 - - - - 10 Mostly clear - 21.1 1018.0 0.0
02/11:00am N 12 18 - - - - 10 Partly cloudy - 20.9 1018.5 0.0
02/10:30am NNE 11 17 - - - - 10 Cloudy - 20.6 1018.7 0.0
02/10:00am NNE 14 20 - - - - 10 Cloudy - 20.7 1018.9 0.0
02/09:30am NNE 12 20 - - - - 10 Partly cloudy - 20.2 1019.1 0.0
02/09:00am NNE 12 18 - - - - 10 Cloudy - 19.9 1019.3 0.0
02/08:30am N 12 20 - - - - 10 Partly cloudy - 19.6 1019.2 0.0
02/08:00am N 12 19 - - - - 10 Partly cloudy - 19.6 1019.1 0.0
02/07:30am N 13 19 - - - - 10 Cloudy - 19.5 1018.8 0.0
02/07:00am NNE 12 19 - - - - 10 Cloudy - 19.5 1018.5 0.0
02/06:30am NNE 11 18 - - - - 10 Partly cloudy - 19.7 1018.5 0.0
02/06:00am N 13 21 - - - - 10 Cloudy - 19.9 1018.4 0.0
02/05:30am NNE 13 21 - - - - 10 Partly cloudy - 19.8 1018.5 0.0
02/05:00am NNE 10 15 - - - - 10 Partly cloudy - 19.5 1018.5 0.0
02/04:30am N 10 15 - - - - 10 Partly cloudy - 19.5 1018.8 0.0
02/04:00am N 8 13 - - - - 10 - - 19.6 1018.8 0.0
02/03:30am NNE 7 10 - - - - 10 - - 18.3 1018.9 0.0
02/03:00am NNE 7 9 - - - - 10 Mostly cloudy - 18.2 1019.1 0.0
02/02:30am NNE 8 10 - - - - 10 - - 18.2 1019.3 0.0
02/02:00am NNE 6 9 - - - - 10 - - 17.1 1019.8 0.0
02/01:30am NNE 6 8 - - - - 10 - - 17.7 1019.9 0.0
02/01:00am NNE 7 9 - - - - 10 - - 18.0 1020.2 0.0
02/12:30am NNE 6 9 - - - - 10 - - 17.6 1020.4 0.0
02/12:00am NNE 5 6 - - - - 10 Mostly cloudy - 16.5 1020.7 0.0
 
Date/Time
EST
Wind Sea
Height
m
Swell Vis
km
Cloud Weather Temp
°C
Press
MSL
hPa
Rain since
9am
mm
Dir  Spd
kts
Gust
kts
Height
m
Period
s
Dir
01/11:30pm NNE 5 6 - - - - 10 - - 17.2 1021.0 0.0
01/11:00pm NNE 5 6 - - - - 10 - - 17.6 1021.3 0.0
01/10:30pm NNE 5 5 - - - - 10 - - 17.9 1021.6 0.0
01/10:00pm NNE 6 8 - - - - 10 - - 19.2 1021.7 0.0
01/09:30pm NNE 7 9 - - - - 10 - - 20.1 1021.8 0.0
01/09:00pm NNE 7 9 - - - - 10 - - 20.5 1021.7 0.0
01/08:30pm NNE 5 6 - - - - 10 - - 20.6 1021.7 0.0
01/08:00pm NNE 6 8 - - - - 10 - - 21.4 1021.6 0.0

Other formats

Comma delimited format used in spreadsheet applications
http://www.bom.gov.au/fwo/IDV60701/IDV60701.94865.axf

JavaScript Object Notation format (JSON) in row-major order
http://www.bom.gov.au/fwo/IDV60701/IDV60701.94865.json

Data quality

Most of these data are generated automatically and are frequently updated. Quality checks on data are not normally performed. It is possible for incorrect values to appear. Refer to information at About Latest Weather Observations and please check the disclaimer before using these data.